createdAt,value
2023-10-26T00:04:49.015Z,3.35
2023-10-26T00:09:51.834Z,3.10
2023-10-26T00:14:55.165Z,2.92
2023-10-26T00:19:59.417Z,3.50
2023-10-26T00:25:02.232Z,3.67
2023-10-26T00:30:06.081Z,3.20
2023-10-26T00:35:10.941Z,3.70
2023-10-26T00:40:14.678Z,4.07
2023-10-26T00:45:20.273Z,4.05
2023-10-26T00:50:24.708Z,3.60
2023-10-26T00:55:28.499Z,3.80
2023-10-26T01:00:32.548Z,3.95
2023-10-26T01:05:36.685Z,3.83
2023-10-26T01:10:39.801Z,3.42
2023-10-26T01:15:42.797Z,3.58
2023-10-26T01:20:47.012Z,3.08
2023-10-26T01:25:54.620Z,3.65
2023-10-26T01:30:57.528Z,3.80
2023-10-26T01:36:00.318Z,3.72
2023-10-26T01:41:05.710Z,4.18
2023-10-26T01:46:08.577Z,3.60
2023-10-26T01:51:11.364Z,3.30
2023-10-26T01:56:15.519Z,4.60
2023-10-26T02:01:18.347Z,4.00
2023-10-26T02:06:21.378Z,4.38
2023-10-26T02:11:25.723Z,4.20
2023-10-26T02:16:28.511Z,4.72
2023-10-26T02:21:31.347Z,4.10
2023-10-26T02:26:35.477Z,4.95
2023-10-26T02:31:38.253Z,4.50
2023-10-26T02:36:41.047Z,4.00
2023-10-26T02:41:45.156Z,3.88
2023-10-26T02:46:47.946Z,4.60
2023-10-26T02:51:50.722Z,3.90
2023-10-26T02:56:54.966Z,4.10
2023-10-26T03:01:58.236Z,5.60
2023-10-26T03:07:01.127Z,3.28
2023-10-26T03:12:06.037Z,4.20
2023-10-26T03:17:08.878Z,2.30
2023-10-26T03:22:11.859Z,2.88
2023-10-26T03:27:16.327Z,2.30
2023-10-26T03:32:19.160Z,2.90
2023-10-26T03:37:21.995Z,2.10
2023-10-26T03:42:26.194Z,1.73
2023-10-26T03:47:29.168Z,1.67
2023-10-26T03:52:32.072Z,1.30
2023-10-26T03:57:36.231Z,1.00
2023-10-26T04:02:41.359Z,0.68
2023-10-26T04:08:22.888Z,0.63
2023-10-26T04:13:37.336Z,0.50
2023-10-26T04:19:15.661Z,0.52
2023-10-26T04:30:18.923Z,0.60
2023-10-26T04:35:50.485Z,0.43
2023-10-26T04:52:44.566Z,0.40
2023-10-26T04:57:47.901Z,0.68
2023-10-26T05:02:52.398Z,0.57
2023-10-26T05:07:55.331Z,0.35
2023-10-26T05:12:58.090Z,0.57
2023-10-26T05:18:02.277Z,0.50
2023-10-26T05:23:06.504Z,0.63
2023-10-26T05:28:09.469Z,0.60
2023-10-26T05:33:13.690Z,0.63
2023-10-26T05:38:19.734Z,0.50
2023-10-26T05:43:22.650Z,0.60
2023-10-26T05:48:26.925Z,0.50
2023-10-26T05:53:29.762Z,0.60
2023-10-26T05:58:32.740Z,0.82
2023-10-26T06:03:36.960Z,0.55
2023-10-26T06:08:40.194Z,1.45
2023-10-26T06:13:43.139Z,0.70
2023-10-26T06:18:47.312Z,0.60
2023-10-26T06:23:50.197Z,0.70
2023-10-26T06:28:54.209Z,0.50
2023-10-26T06:33:58.399Z,0.50
2023-10-26T06:39:01.232Z,0.60
2023-10-26T06:44:04.439Z,0.60
2023-10-26T06:49:18.857Z,0.68
2023-10-26T06:54:31.448Z,0.63
2023-10-26T06:59:34.283Z,0.50
2023-10-26T07:04:38.699Z,0.70
2023-10-26T07:09:41.928Z,0.80
2023-10-26T07:14:44.907Z,0.93
2023-10-26T07:19:49.424Z,0.80
2023-10-26T07:24:52.257Z,0.85
2023-10-26T07:29:55.122Z,0.80
2023-10-26T07:34:59.901Z,0.63
2023-10-26T07:40:28.938Z,0.60
2023-10-26T07:45:27.166Z,0.88
2023-10-26T07:50:31.488Z,0.70
2023-10-26T07:55:34.735Z,0.63
2023-10-26T08:00:39.101Z,0.60
2023-10-26T08:05:43.267Z,1.20
2023-10-26T08:10:46.105Z,0.70
2023-10-26T08:16:11.228Z,0.70
2023-10-26T08:21:14.277Z,0.65
2023-10-26T08:26:17.192Z,0.80
2023-10-26T08:31:20.135Z,0.85
2023-10-26T08:36:26.452Z,0.80
2023-10-26T08:41:33.660Z,0.90
2023-10-26T08:46:36.765Z,0.70
2023-10-26T08:51:41.237Z,1.10
2023-10-26T08:56:44.347Z,0.98
2023-10-26T09:01:48.630Z,0.90
2023-10-26T09:06:54.174Z,1.02
2023-10-26T09:12:10.505Z,1.00
2023-10-26T09:17:27.687Z,1.20
2023-10-26T09:22:39.208Z,1.25
2023-10-26T09:27:43.278Z,1.40
2023-10-26T09:32:47.461Z,1.20
2023-10-26T09:37:53.173Z,1.30
2023-10-26T09:42:57.965Z,1.67
2023-10-26T09:48:04.490Z,1.50
2023-10-26T09:58:15.830Z,1.38
2023-10-26T10:03:19.874Z,1.63
2023-10-26T10:08:56.141Z,1.20
2023-10-26T10:14:00.331Z,1.20
2023-10-26T10:19:27.086Z,1.30
2023-10-26T10:24:51.949Z,1.20
2023-10-26T10:30:09.837Z,1.40
2023-10-26T10:35:14.144Z,1.30
2023-10-26T10:40:20.986Z,1.13
2023-10-26T10:45:26.008Z,1.30
2023-10-26T10:50:31.236Z,1.00
2023-10-26T10:55:34.615Z,1.17
2023-10-26T11:00:47.053Z,0.95
2023-10-26T11:05:51.573Z,0.95
2023-10-26T11:10:55.364Z,0.90
2023-10-26T11:15:59.691Z,1.00
2023-10-26T11:21:02.597Z,0.80
2023-10-26T11:26:16.796Z,0.90
2023-10-26T11:31:43.107Z,0.65
2023-10-26T11:36:47.734Z,0.70
2023-10-26T11:41:54.543Z,0.70
2023-10-26T11:47:03.452Z,0.57
2023-10-26T11:52:08.052Z,0.70
2023-10-26T11:57:11.162Z,0.60
2023-10-26T12:02:15.645Z,0.60
2023-10-26T12:07:18.616Z,0.60
2023-10-26T12:12:21.641Z,0.70
2023-10-26T12:17:26.191Z,0.70
2023-10-26T12:22:29.224Z,0.70
2023-10-26T12:27:32.246Z,1.08
2023-10-26T12:32:56.488Z,0.98
2023-10-26T12:37:59.636Z,1.20
2023-10-26T12:43:02.732Z,0.95
2023-10-26T12:48:07.139Z,1.20
2023-10-26T12:53:10.038Z,1.23
2023-10-26T12:58:12.982Z,1.17
2023-10-26T13:03:17.281Z,1.20
2023-10-26T13:08:21.071Z,1.73
2023-10-26T13:13:23.921Z,1.60
2023-10-26T13:18:28.207Z,1.20
2023-10-26T13:23:31.094Z,1.40
2023-10-26T13:28:34.224Z,1.33
2023-10-26T13:33:38.756Z,1.30
2023-10-26T13:38:42.261Z,1.20
2023-10-26T13:43:45.163Z,1.48
2023-10-26T13:48:49.673Z,2.00
2023-10-26T13:53:52.948Z,1.20
2023-10-26T13:58:56.105Z,1.40
2023-10-26T14:04:00.558Z,1.08
2023-10-26T14:09:04.786Z,1.30
2023-10-26T14:14:08.784Z,1.17
2023-10-26T14:19:13.354Z,1.50
2023-10-26T14:24:16.375Z,1.23
2023-10-26T14:29:19.378Z,1.17
2023-10-26T14:34:23.889Z,1.40
2023-10-26T14:39:27.654Z,1.27
2023-10-26T14:44:31.073Z,1.25
2023-10-26T14:49:35.738Z,1.13
2023-10-26T14:54:39.092Z,1.65
2023-10-26T14:59:42.753Z,1.50
2023-10-26T15:04:47.543Z,1.85
2023-10-26T15:10:24.997Z,1.27
2023-10-26T15:15:13.994Z,1.50
2023-10-26T15:20:19.131Z,1.95
2023-10-26T15:25:23.044Z,1.73
2023-10-26T15:30:26.839Z,2.20
2023-10-26T15:35:31.362Z,1.60
2023-10-26T15:40:34.516Z,2.47
2023-10-26T15:45:37.414Z,1.50
2023-10-26T15:50:45.109Z,2.05
2023-10-26T15:55:57.582Z,1.90
2023-10-26T16:01:00.784Z,1.80
2023-10-26T16:06:06.254Z,1.50
2023-10-26T16:11:11.474Z,1.40
2023-10-26T16:16:15.198Z,1.50
2023-10-26T16:21:19.445Z,1.95
2023-10-26T16:26:22.426Z,2.10
2023-10-26T16:31:25.374Z,2.00
2023-10-26T16:36:29.560Z,3.38
2023-10-26T16:41:32.426Z,2.20
2023-10-26T16:46:35.344Z,2.00
2023-10-26T16:51:39.534Z,2.45
2023-10-26T16:56:42.432Z,2.70
2023-10-26T17:01:45.289Z,2.58
2023-10-26T17:06:49.470Z,2.60
2023-10-26T17:11:52.299Z,2.95
2023-10-26T17:16:55.118Z,2.70
2023-10-26T17:21:59.444Z,3.97
2023-10-26T17:27:02.285Z,12.27
2023-10-26T17:32:05.882Z,3.90
2023-10-26T17:37:10.066Z,3.80
2023-10-26T17:42:12.916Z,3.63
2023-10-26T17:47:15.914Z,3.67
2023-10-26T17:52:20.185Z,3.65
2023-10-26T17:57:23.049Z,3.33
2023-10-26T18:02:25.973Z,5.50
2023-10-26T18:07:30.078Z,4.50
2023-10-26T18:12:32.916Z,5.40
2023-10-26T18:17:35.742Z,5.90
2023-10-26T18:22:40.447Z,4.63
2023-10-26T18:27:43.358Z,5.07
2023-10-26T18:32:46.219Z,5.20
2023-10-26T18:37:54.700Z,6.67
2023-10-26T18:42:57.540Z,4.83
2023-10-26T18:48:01.260Z,6.67
2023-10-26T18:53:06.528Z,6.30
2023-10-26T18:58:11.447Z,5.90
2023-10-26T19:03:17.734Z,6.73
2023-10-26T19:08:22.347Z,7.83
2023-10-26T19:13:25.395Z,8.63
2023-10-26T19:18:28.365Z,8.57
2023-10-26T19:23:32.644Z,6.80
2023-10-26T19:28:35.454Z,4.27
2023-10-26T19:33:38.332Z,4.57
2023-10-26T19:38:42.548Z,4.87
2023-10-26T19:43:46.067Z,6.90
2023-10-26T19:48:48.889Z,7.43
2023-10-26T19:53:53.297Z,6.43
2023-10-26T19:58:56.143Z,7.50
2023-10-26T20:03:58.946Z,5.17
2023-10-26T20:09:03.450Z,3.97
2023-10-26T20:14:06.470Z,3.87
2023-10-26T20:19:09.324Z,5.63
2023-10-26T20:24:14.459Z,4.60
2023-10-26T20:29:17.218Z,4.70
2023-10-26T20:34:20.342Z,5.03
2023-10-26T20:39:24.621Z,5.20
2023-10-26T20:44:27.450Z,4.82
2023-10-26T20:49:30.252Z,6.10
2023-10-26T20:54:34.464Z,5.20
2023-10-26T20:59:38.528Z,4.87
2023-10-26T21:04:41.492Z,4.40
2023-10-26T21:09:45.840Z,4.47
2023-10-26T21:14:49.008Z,4.90
2023-10-26T21:19:51.925Z,4.90
2023-10-26T21:24:56.100Z,5.10
2023-10-26T21:29:59.046Z,5.50
2023-10-26T21:35:02.066Z,5.23
2023-10-26T21:40:07.467Z,4.73
2023-10-26T21:45:11.305Z,4.70
2023-10-26T21:50:14.127Z,5.00
2023-10-26T21:55:18.410Z,4.40
2023-10-26T22:00:26.173Z,4.70
2023-10-26T22:05:30.874Z,4.80
2023-10-26T22:10:35.085Z,4.87
2023-10-26T22:15:37.902Z,4.33
2023-10-26T22:20:41.541Z,4.27
2023-10-26T22:25:45.927Z,3.60
2023-10-26T22:30:48.699Z,3.77
2023-10-26T22:35:51.498Z,4.00
2023-10-26T22:40:55.750Z,3.43
2023-10-26T22:45:58.583Z,3.57
2023-10-26T22:51:01.601Z,3.90
2023-10-26T22:56:06.217Z,3.90
2023-10-26T23:01:09.061Z,3.70
2023-10-26T23:06:12.301Z,3.83
2023-10-26T23:11:16.422Z,3.37
2023-10-26T23:16:19.291Z,3.83
2023-10-26T23:21:22.120Z,3.50
2023-10-26T23:26:26.310Z,3.27
2023-10-26T23:31:29.151Z,2.90
2023-10-26T23:36:31.914Z,3.93
2023-10-26T23:41:36.071Z,3.93
2023-10-26T23:46:38.842Z,3.63
2023-10-26T23:51:41.714Z,3.00
2023-10-26T23:56:45.838Z,3.97
